sensor_id;sensor_type;location;lat;lon;timestamp;temperature;humidity
14755;DHT22;7469;50.906;6.952;2022-08-01T00:01:15;22.20;99.90
14755;DHT22;7469;50.906;6.952;2022-08-01T00:03:44;22.20;99.90
14755;DHT22;7469;50.906;6.952;2022-08-01T00:06:12;22.20;99.90
14755;DHT22;7469;50.906;6.952;2022-08-01T00:08:40;22.20;99.90
14755;DHT22;7469;50.906;6.952;2022-08-01T00:11:08;22.20;99.90
14755;DHT22;7469;50.906;6.952;2022-08-01T00:13:36;22.20;99.90
14755;DHT22;7469;50.906;6.952;2022-08-01T00:16:04;22.20;99.90
14755;DHT22;7469;50.906;6.952;2022-08-01T00:18:32;22.20;99.90
14755;DHT22;7469;50.906;6.952;2022-08-01T00:21:02;22.20;99.90
14755;DHT22;7469;50.906;6.952;2022-08-01T00:23:31;22.20;99.90
14755;DHT22;7469;50.906;6.952;2022-08-01T00:25:59;22.20;99.90
14755;DHT22;7469;50.906;6.952;2022-08-01T00:28:27;22.20;99.90
14755;DHT22;7469;50.906;6.952;2022-08-01T00:30:55;22.20;99.90
14755;DHT22;7469;50.906;6.952;2022-08-01T00:33:23;22.20;99.90
14755;DHT22;7469;50.906;6.952;2022-08-01T00:35:51;22.20;99.90
14755;DHT22;7469;50.906;6.952;2022-08-01T00:38:21;22.20;99.90
14755;DHT22;7469;50.906;6.952;2022-08-01T00:40:49;22.20;99.90
14755;DHT22;7469;50.906;6.952;2022-08-01T00:43:17;22.20;99.90
14755;DHT22;7469;50.906;6.952;2022-08-01T00:45:45;22.10;99.90
14755;DHT22;7469;50.906;6.952;2022-08-01T00:48:13;22.10;99.90
14755;DHT22;7469;50.906;6.952;2022-08-01T00:50:41;22.10;99.90
14755;DHT22;7469;50.906;6.952;2022-08-01T00:53:10;22.10;99.90
14755;DHT22;7469;50.906;6.952;2022-08-01T00:55:46;22.10;99.90
14755;DHT22;7469;50.906;6.952;2022-08-01T00:58:15;22.10;99.90
14755;DHT22;7469;50.906;6.952;2022-08-01T01:00:43;22.10;99.90
14755;DHT22;7469;50.906;6.952;2022-08-01T01:03:23;22.10;99.90
14755;DHT22;7469;50.906;6.952;2022-08-01T01:06:25;22.00;99.90
14755;DHT22;7469;50.906;6.952;2022-08-01T01:09:16;22.00;99.90
14755;DHT22;7469;50.906;6.952;2022-08-01T01:11:51;22.00;99.90
14755;DHT22;7469;50.906;6.952;2022-08-01T01:14:31;21.90;99.90
14755;DHT22;7469;50.906;6.952;2022-08-01T01:17:03;21.80;99.90
14755;DHT22;7469;50.906;6.952;2022-08-01T01:19:34;21.80;99.90
14755;DHT22;7469;50.906;6.952;2022-08-01T01:22:19;21.70;99.90
14755;DHT22;7469;50.906;6.952;2022-08-01T01:25:02;21.70;99.90
14755;DHT22;7469;50.906;6.952;2022-08-01T01:27:45;21.70;99.90
14755;DHT22;7469;50.906;6.952;2022-08-01T01:30:17;21.70;99.90
14755;DHT22;7469;50.906;6.952;2022-08-01T01:32:48;21.70;99.90
14755;DHT22;7469;50.906;6.952;2022-08-01T01:35:22;21.70;99.90
14755;DHT22;7469;50.906;6.952;2022-08-01T01:37:53;21.60;99.90
14755;DHT22;7469;50.906;6.952;2022-08-01T01:40:23;21.50;99.90
14755;DHT22;7469;50.906;6.952;2022-08-01T01:42:52;21.50;99.90
14755;DHT22;7469;50.906;6.952;2022-08-01T01:45:23;21.50;99.90
14755;DHT22;7469;50.906;6.952;2022-08-01T01:47:53;21.40;99.90
14755;DHT22;7469;50.906;6.952;2022-08-01T01:50:22;21.40;99.90
14755;DHT22;7469;50.906;6.952;2022-08-01T01:52:51;21.40;99.90
14755;DHT22;7469;50.906;6.952;2022-08-01T01:55:22;21.40;99.90
14755;DHT22;7469;50.906;6.952;2022-08-01T01:57:52;21.40;99.90
14755;DHT22;7469;50.906;6.952;2022-08-01T02:00:23;21.40;99.90
14755;DHT22;7469;50.906;6.952;2022-08-01T02:02:52;21.40;99.90
14755;DHT22;7469;50.906;6.952;2022-08-01T02:05:22;21.40;99.90
14755;DHT22;7469;50.906;6.952;2022-08-01T02:07:53;21.40;99.90
14755;DHT22;7469;50.906;6.952;2022-08-01T02:10:26;21.40;99.90
14755;DHT22;7469;50.906;6.952;2022-08-01T02:12:56;21.40;99.90
14755;DHT22;7469;50.906;6.952;2022-08-01T02:15:27;21.40;99.90
14755;DHT22;7469;50.906;6.952;2022-08-01T02:17:58;21.40;99.90
14755;DHT22;7469;50.906;6.952;2022-08-01T02:20:28;21.40;99.90
14755;DHT22;7469;50.906;6.952;2022-08-01T02:23:01;21.30;99.90
14755;DHT22;7469;50.906;6.952;2022-08-01T02:25:38;21.30;99.90
14755;DHT22;7469;50.906;6.952;2022-08-01T02:28:30;21.30;99.90
14755;DHT22;7469;50.906;6.952;2022-08-01T02:31:08;21.30;99.90
14755;DHT22;7469;50.906;6.952;2022-08-01T02:33:43;21.30;99.90
14755;DHT22;7469;50.906;6.952;2022-08-01T02:36:12;21.20;99.90
14755;DHT22;7469;50.906;6.952;2022-08-01T02:39:01;21.20;99.90
14755;DHT22;7469;50.906;6.952;2022-08-01T02:41:33;21.20;99.90
14755;DHT22;7469;50.906;6.952;2022-08-01T02:44:04;21.10;99.90
14755;DHT22;7469;50.906;6.952;2022-08-01T02:46:37;21.10;99.90
14755;DHT22;7469;50.906;6.952;2022-08-01T02:49:08;21.10;99.90
14755;DHT22;7469;50.906;6.952;2022-08-01T02:51:37;21.10;99.90
14755;DHT22;7469;50.906;6.952;2022-08-01T02:54:08;21.20;99.90
14755;DHT22;7469;50.906;6.952;2022-08-01T02:56:38;21.20;99.90
14755;DHT22;7469;50.906;6.952;2022-08-01T02:59:10;21.20;99.90
14755;DHT22;7469;50.906;6.952;2022-08-01T03:01:42;21.10;99.90
14755;DHT22;7469;50.906;6.952;2022-08-01T03:04:12;21.20;99.90
14755;DHT22;7469;50.906;6.952;2022-08-01T03:06:42;21.10;99.90
14755;DHT22;7469;50.906;6.952;2022-08-01T03:09:11;21.10;99.90
14755;DHT22;7469;50.906;6.952;2022-08-01T03:11:41;21.10;99.90
14755;DHT22;7469;50.906;6.952;2022-08-01T03:14:11;21.00;99.90
14755;DHT22;7469;50.906;6.952;2022-08-01T03:16:43;21.00;99.90
14755;DHT22;7469;50.906;6.952;2022-08-01T03:19:13;21.00;99.90
14755;DHT22;7469;50.906;6.952;2022-08-01T03:21:43;21.00;99.90
14755;DHT22;7469;50.906;6.952;2022-08-01T03:24:13;21.00;99.90
14755;DHT22;7469;50.906;6.952;2022-08-01T03:26:41;21.00;99.90
14755;DHT22;7469;50.906;6.952;2022-08-01T03:29:15;21.00;99.90
14755;DHT22;7469;50.906;6.952;2022-08-01T03:31:48;21.00;99.90
14755;DHT22;7469;50.906;6.952;2022-08-01T03:34:16;21.00;99.90
14755;DHT22;7469;50.906;6.952;2022-08-01T03:36:48;21.00;99.90
14755;DHT22;7469;50.906;6.952;2022-08-01T03:39:18;21.00;99.90
14755;DHT22;7469;50.906;6.952;2022-08-01T03:41:54;21.00;99.90
14755;DHT22;7469;50.906;6.952;2022-08-01T03:44:26;21.00;99.90
14755;DHT22;7469;50.906;6.952;2022-08-01T03:47:00;21.00;99.90
14755;DHT22;7469;50.906;6.952;2022-08-01T03:49:31;21.00;99.90
14755;DHT22;7469;50.906;6.952;2022-08-01T03:52:02;21.00;99.90
14755;DHT22;7469;50.906;6.952;2022-08-01T03:54:34;21.00;99.90
14755;DHT22;7469;50.906;6.952;2022-08-01T03:57:04;21.00;99.90
14755;DHT22;7469;50.906;6.952;2022-08-01T03:59:35;21.00;99.90
14755;DHT22;7469;50.906;6.952;2022-08-01T04:02:06;21.00;99.90
14755;DHT22;7469;50.906;6.952;2022-08-01T04:04:35;21.00;99.90
14755;DHT22;7469;50.906;6.952;2022-08-01T04:07:03;20.90;99.90
14755;DHT22;7469;50.906;6.952;2022-08-01T04:09:33;20.90;99.90
14755;DHT22;7469;50.906;6.952;2022-08-01T04:12:01;21.00;99.90
14755;DHT22;7469;50.906;6.952;2022-08-01T04:14:38;21.00;99.90
14755;DHT22;7469;50.906;6.952;2022-08-01T04:17:07;21.00;99.90
14755;DHT22;7469;50.906;6.952;2022-08-01T04:19:35;21.00;99.90
14755;DHT22;7469;50.906;6.952;2022-08-01T04:22:04;21.00;99.90
14755;DHT22;7469;50.906;6.952;2022-08-01T04:24:35;21.00;99.90
14755;DHT22;7469;50.906;6.952;2022-08-01T04:27:08;21.00;99.90
14755;DHT22;7469;50.906;6.952;2022-08-01T04:29:38;21.00;99.90
14755;DHT22;7469;50.906;6.952;2022-08-01T04:32:11;21.00;99.90
14755;DHT22;7469;50.906;6.952;2022-08-01T04:34:41;21.10;99.90
14755;DHT22;7469;50.906;6.952;2022-08-01T04:37:11;21.10;99.90
14755;DHT22;7469;50.906;6.952;2022-08-01T04:39:42;21.10;99.90
14755;DHT22;7469;50.906;6.952;2022-08-01T04:42:17;21.10;99.90
14755;DHT22;7469;50.906;6.952;2022-08-01T04:44:55;21.10;99.90
14755;DHT22;7469;50.906;6.952;2022-08-01T04:47:25;21.10;99.90
14755;DHT22;7469;50.906;6.952;2022-08-01T04:49:53;21.10;99.90
14755;DHT22;7469;50.906;6.952;2022-08-01T04:52:23;21.10;99.90
14755;DHT22;7469;50.906;6.952;2022-08-01T04:54:51;21.10;99.90
14755;DHT22;7469;50.906;6.952;2022-08-01T04:57:19;21.20;99.90
14755;DHT22;7469;50.906;6.952;2022-08-01T04:59:47;21.10;99.90
14755;DHT22;7469;50.906;6.952;2022-08-01T05:02:24;21.10;99.90
14755;DHT22;7469;50.906;6.952;2022-08-01T05:04:55;21.10;99.90
14755;DHT22;7469;50.906;6.952;2022-08-01T05:07:23;21.10;99.90
14755;DHT22;7469;50.906;6.952;2022-08-01T05:09:51;21.10;99.90
14755;DHT22;7469;50.906;6.952;2022-08-01T05:12:19;21.10;99.90
14755;DHT22;7469;50.906;6.952;2022-08-01T05:14:47;21.10;99.90
14755;DHT22;7469;50.906;6.952;2022-08-01T05:17:15;21.10;99.90
14755;DHT22;7469;50.906;6.952;2022-08-01T05:19:44;21.10;99.90
14755;DHT22;7469;50.906;6.952;2022-08-01T05:22:12;21.20;99.90
14755;DHT22;7469;50.906;6.952;2022-08-01T05:24:40;21.20;99.90
14755;DHT22;7469;50.906;6.952;2022-08-01T05:27:10;21.20;99.90
14755;DHT22;7469;50.906;6.952;2022-08-01T05:29:42;21.20;99.90
14755;DHT22;7469;50.906;6.952;2022-08-01T05:32:11;21.20;99.90
14755;DHT22;7469;50.906;6.952;2022-08-01T05:34:39;21.20;99.90
14755;DHT22;7469;50.906;6.952;2022-08-01T05:37:08;21.20;99.90
14755;DHT22;7469;50.906;6.952;2022-08-01T05:39:36;21.30;99.90
14755;DHT22;7469;50.906;6.952;2022-08-01T05:42:04;21.30;99.90
14755;DHT22;7469;50.906;6.952;2022-08-01T05:44:33;21.30;99.90
14755;DHT22;7469;50.906;6.952;2022-08-01T05:47:01;21.30;99.90
14755;DHT22;7469;50.906;6.952;2022-08-01T05:49:29;21.40;99.90
14755;DHT22;7469;50.906;6.952;2022-08-01T05:51:58;21.40;99.90
14755;DHT22;7469;50.906;6.952;2022-08-01T05:54:29;21.40;99.90
14755;DHT22;7469;50.906;6.952;2022-08-01T05:56:57;21.40;99.90
14755;DHT22;7469;50.906;6.952;2022-08-01T05:59:28;21.40;99.90
14755;DHT22;7469;50.906;6.952;2022-08-01T06:01:56;21.50;99.90
14755;DHT22;7469;50.906;6.952;2022-08-01T06:04:24;21.50;99.90
14755;DHT22;7469;50.906;6.952;2022-08-01T06:06:52;21.60;99.90
14755;DHT22;7469;50.906;6.952;2022-08-01T06:09:20;21.60;99.90
14755;DHT22;7469;50.906;6.952;2022-08-01T06:11:50;21.60;99.90
14755;DHT22;7469;50.906;6.952;2022-08-01T06:14:18;21.50;99.90
14755;DHT22;7469;50.906;6.952;2022-08-01T06:16:47;21.60;99.90
14755;DHT22;7469;50.906;6.952;2022-08-01T06:19:15;21.60;99.90
14755;DHT22;7469;50.906;6.952;2022-08-01T06:21:43;21.70;99.90
14755;DHT22;7469;50.906;6.952;2022-08-01T06:24:11;22.00;99.90
14755;DHT22;7469;50.906;6.952;2022-08-01T06:26:39;22.20;99.90
14755;DHT22;7469;50.906;6.952;2022-08-01T06:29:08;22.40;99.90
14755;DHT22;7469;50.906;6.952;2022-08-01T06:31:38;22.70;99.90
14755;DHT22;7469;50.906;6.952;2022-08-01T06:34:06;22.90;99.90
14755;DHT22;7469;50.906;6.952;2022-08-01T06:36:35;23.00;99.90
14755;DHT22;7469;50.906;6.952;2022-08-01T06:39:03;23.10;99.90
14755;DHT22;7469;50.906;6.952;2022-08-01T06:41:31;23.10;99.90
14755;DHT22;7469;50.906;6.952;2022-08-01T06:43:59;23.20;99.90
14755;DHT22;7469;50.906;6.952;2022-08-01T06:46:30;23.40;99.90
14755;DHT22;7469;50.906;6.952;2022-08-01T06:49:00;23.60;99.90
14755;DHT22;7469;50.906;6.952;2022-08-01T06:51:28;23.70;99.90
14755;DHT22;7469;50.906;6.952;2022-08-01T06:53:56;23.90;99.90
14755;DHT22;7469;50.906;6.952;2022-08-01T06:56:24;23.90;99.90
14755;DHT22;7469;50.906;6.952;2022-08-01T06:58:52;23.90;99.90
14755;DHT22;7469;50.906;6.952;2022-08-01T07:01:23;23.90;99.90
14755;DHT22;7469;50.906;6.952;2022-08-01T07:03:52;23.80;99.90
14755;DHT22;7469;50.906;6.952;2022-08-01T07:06:22;23.80;99.90
14755;DHT22;7469;50.906;6.952;2022-08-01T07:08:50;23.90;99.90
14755;DHT22;7469;50.906;6.952;2022-08-01T07:11:18;24.00;99.90
14755;DHT22;7469;50.906;6.952;2022-08-01T07:13:47;24.30;99.90
14755;DHT22;7469;50.906;6.952;2022-08-01T07:16:15;24.50;99.90
14755;DHT22;7469;50.906;6.952;2022-08-01T07:18:44;24.90;99.90
14755;DHT22;7469;50.906;6.952;2022-08-01T07:21:13;25.10;99.90
14755;DHT22;7469;50.906;6.952;2022-08-01T07:24:01;25.10;99.90
14755;DHT22;7469;50.906;6.952;2022-08-01T07:26:40;25.00;99.90
14755;DHT22;7469;50.906;6.952;2022-08-01T07:29:21;25.00;99.90
14755;DHT22;7469;50.906;6.952;2022-08-01T07:31:49;24.90;99.90
14755;DHT22;7469;50.906;6.952;2022-08-01T07:34:17;24.80;99.90
14755;DHT22;7469;50.906;6.952;2022-08-01T07:36:46;24.70;99.90
14755;DHT22;7469;50.906;6.952;2022-08-01T07:39:14;24.70;99.90
14755;DHT22;7469;50.906;6.952;2022-08-01T07:41:42;24.70;99.90
14755;DHT22;7469;50.906;6.952;2022-08-01T07:44:30;24.60;99.90
14755;DHT22;7469;50.906;6.952;2022-08-01T07:46:59;24.60;99.90
14755;DHT22;7469;50.906;6.952;2022-08-01T07:49:26;24.60;99.90
14755;DHT22;7469;50.906;6.952;2022-08-01T07:51:56;24.50;99.90
14755;DHT22;7469;50.906;6.952;2022-08-01T07:54:39;24.50;99.90
14755;DHT22;7469;50.906;6.952;2022-08-01T07:57:07;24.50;99.90
14755;DHT22;7469;50.906;6.952;2022-08-01T07:59:36;24.50;99.90
14755;DHT22;7469;50.906;6.952;2022-08-01T08:02:04;24.60;99.90
14755;DHT22;7469;50.906;6.952;2022-08-01T08:04:32;24.80;99.90
14755;DHT22;7469;50.906;6.952;2022-08-01T08:07:02;25.10;99.90
14755;DHT22;7469;50.906;6.952;2022-08-01T08:09:31;25.40;99.90
14755;DHT22;7469;50.906;6.952;2022-08-01T08:12:04;25.90;99.90
14755;DHT22;7469;50.906;6.952;2022-08-01T08:14:33;26.20;99.90
14755;DHT22;7469;50.906;6.952;2022-08-01T08:17:02;26.50;99.90
14755;DHT22;7469;50.906;6.952;2022-08-01T08:19:30;26.70;99.90
14755;DHT22;7469;50.906;6.952;2022-08-01T08:22:05;26.80;99.90
14755;DHT22;7469;50.906;6.952;2022-08-01T08:24:35;26.80;99.90
14755;DHT22;7469;50.906;6.952;2022-08-01T08:27:12;26.80;99.90
14755;DHT22;7469;50.906;6.952;2022-08-01T08:29:44;26.90;99.90
14755;DHT22;7469;50.906;6.952;2022-08-01T08:32:13;27.10;99.90
14755;DHT22;7469;50.906;6.952;2022-08-01T08:34:42;27.20;99.90
14755;DHT22;7469;50.906;6.952;2022-08-01T08:37:11;27.50;99.90
14755;DHT22;7469;50.906;6.952;2022-08-01T08:39:39;27.40;99.90
14755;DHT22;7469;50.906;6.952;2022-08-01T08:42:09;27.20;99.90
14755;DHT22;7469;50.906;6.952;2022-08-01T08:44:37;27.10;99.90
14755;DHT22;7469;50.906;6.952;2022-08-01T08:47:11;27.00;99.90
14755;DHT22;7469;50.906;6.952;2022-08-01T08:49:46;26.90;99.90
14755;DHT22;7469;50.906;6.952;2022-08-01T08:52:17;26.80;99.90
14755;DHT22;7469;50.906;6.952;2022-08-01T08:54:48;26.70;99.90
14755;DHT22;7469;50.906;6.952;2022-08-01T08:57:16;26.50;99.90
14755;DHT22;7469;50.906;6.952;2022-08-01T08:59:47;26.40;99.90
14755;DHT22;7469;50.906;6.952;2022-08-01T09:02:17;26.30;99.90
14755;DHT22;7469;50.906;6.952;2022-08-01T09:04:47;26.30;99.90
14755;DHT22;7469;50.906;6.952;2022-08-01T09:07:17;26.20;99.90
14755;DHT22;7469;50.906;6.952;2022-08-01T09:09:45;26.00;99.90
14755;DHT22;7469;50.906;6.952;2022-08-01T09:12:17;26.00;99.90
14755;DHT22;7469;50.906;6.952;2022-08-01T09:14:47;26.00;99.90
14755;DHT22;7469;50.906;6.952;2022-08-01T09:17:16;26.20;99.90
14755;DHT22;7469;50.906;6.952;2022-08-01T09:19:46;26.20;99.90
14755;DHT22;7469;50.906;6.952;2022-08-01T09:22:19;26.30;99.90
14755;DHT22;7469;50.906;6.952;2022-08-01T09:25:00;26.30;99.90
14755;DHT22;7469;50.906;6.952;2022-08-01T09:27:29;26.30;99.90
14755;DHT22;7469;50.906;6.952;2022-08-01T09:30:09;26.50;99.90
14755;DHT22;7469;50.906;6.952;2022-08-01T09:32:52;26.80;99.90
14755;DHT22;7469;50.906;6.952;2022-08-01T09:35:25;27.30;99.90
14755;DHT22;7469;50.906;6.952;2022-08-01T09:38:18;27.70;99.90
14755;DHT22;7469;50.906;6.952;2022-08-01T09:40:48;28.10;99.90
14755;DHT22;7469;50.906;6.952;2022-08-01T09:43:18;28.30;99.90
14755;DHT22;7469;50.906;6.952;2022-08-01T09:45:46;28.40;99.50
14755;DHT22;7469;50.906;6.952;2022-08-01T09:48:19;28.50;99.10
14755;DHT22;7469;50.906;6.952;2022-08-01T09:50:54;28.40;98.80
14755;DHT22;7469;50.906;6.952;2022-08-01T09:53:42;28.30;99.00
14755;DHT22;7469;50.906;6.952;2022-08-01T09:56:19;29.10;98.30
14755;DHT22;7469;50.906;6.952;2022-08-01T09:58:52;31.20;95.80
14755;DHT22;7469;50.906;6.952;2022-08-01T10:01:41;32.30;91.80
14755;DHT22;7469;50.906;6.952;2022-08-01T10:04:12;33.30;87.70
14755;DHT22;7469;50.906;6.952;2022-08-01T10:06:43;33.90;81.00
14755;DHT22;7469;50.906;6.952;2022-08-01T10:09:13;33.80;74.60
14755;DHT22;7469;50.906;6.952;2022-08-01T10:11:42;33.50;72.60
14755;DHT22;7469;50.906;6.952;2022-08-01T10:14:11;33.40;70.10
14755;DHT22;7469;50.906;6.952;2022-08-01T10:16:45;33.00;69.70
14755;DHT22;7469;50.906;6.952;2022-08-01T10:19:31;32.90;69.60
14755;DHT22;7469;50.906;6.952;2022-08-01T10:22:00;33.90;66.30
14755;DHT22;7469;50.906;6.952;2022-08-01T10:24:30;35.20;62.20
14755;DHT22;7469;50.906;6.952;2022-08-01T10:27:02;36.40;56.80
14755;DHT22;7469;50.906;6.952;2022-08-01T10:29:42;36.80;53.70
14755;DHT22;7469;50.906;6.952;2022-08-01T10:32:31;36.30;52.80
14755;DHT22;7469;50.906;6.952;2022-08-01T10:35:00;36.50;51.70
14755;DHT22;7469;50.906;6.952;2022-08-01T10:37:33;36.80;50.60
14755;DHT22;7469;50.906;6.952;2022-08-01T10:40:20;35.80;49.80
14755;DHT22;7469;50.906;6.952;2022-08-01T10:42:57;34.60;51.30
14755;DHT22;7469;50.906;6.952;2022-08-01T10:45:26;33.80;53.00
14755;DHT22;7469;50.906;6.952;2022-08-01T10:48:03;34.70;53.00
14755;DHT22;7469;50.906;6.952;2022-08-01T10:50:37;35.60;50.00
14755;DHT22;7469;50.906;6.952;2022-08-01T10:53:16;35.30;49.10
14755;DHT22;7469;50.906;6.952;2022-08-01T10:55:57;34.80;49.20
14755;DHT22;7469;50.906;6.952;2022-08-01T10:58:30;34.10;49.90
14755;DHT22;7469;50.906;6.952;2022-08-01T11:01:22;33.40;50.80
14755;DHT22;7469;50.906;6.952;2022-08-01T11:04:02;32.60;52.50
14755;DHT22;7469;50.906;6.952;2022-08-01T11:06:42;31.70;54.10
14755;DHT22;7469;50.906;6.952;2022-08-01T11:09:24;31.00;55.90
14755;DHT22;7469;50.906;6.952;2022-08-01T11:12:06;30.60;57.30
14755;DHT22;7469;50.906;6.952;2022-08-01T11:15:20;30.30;58.10
14755;DHT22;7469;50.906;6.952;2022-08-01T11:18:01;30.70;58.00
14755;DHT22;7469;50.906;6.952;2022-08-01T11:20:32;31.40;56.70
14755;DHT22;7469;50.906;6.952;2022-08-01T11:23:18;32.00;55.40
14755;DHT22;7469;50.906;6.952;2022-08-01T11:26:15;32.20;54.30
14755;DHT22;7469;50.906;6.952;2022-08-01T11:29:13;32.30;55.10
14755;DHT22;7469;50.906;6.952;2022-08-01T11:31:49;32.20;54.40
14755;DHT22;7469;50.906;6.952;2022-08-01T11:34:18;32.00;55.00
14755;DHT22;7469;50.906;6.952;2022-08-01T11:36:47;32.00;55.10
14755;DHT22;7469;50.906;6.952;2022-08-01T11:39:30;32.00;55.60
14755;DHT22;7469;50.906;6.952;2022-08-01T11:42:18;32.20;55.40
14755;DHT22;7469;50.906;6.952;2022-08-01T11:44:51;32.30;54.80
14755;DHT22;7469;50.906;6.952;2022-08-01T11:47:44;32.30;55.00
14755;DHT22;7469;50.906;6.952;2022-08-01T11:50:32;32.30;55.10
14755;DHT22;7469;50.906;6.952;2022-08-01T11:53:02;32.30;54.30
14755;DHT22;7469;50.906;6.952;2022-08-01T11:55:31;32.20;53.60
14755;DHT22;7469;50.906;6.952;2022-08-01T11:58:04;32.00;53.60
14755;DHT22;7469;50.906;6.952;2022-08-01T12:00:35;31.80;53.90
14755;DHT22;7469;50.906;6.952;2022-08-01T12:03:09;31.40;54.50
14755;DHT22;7469;50.906;6.952;2022-08-01T12:05:50;31.00;55.40
14755;DHT22;7469;50.906;6.952;2022-08-01T12:08:25;30.70;55.80
14755;DHT22;7469;50.906;6.952;2022-08-01T12:10:53;30.60;56.00
14755;DHT22;7469;50.906;6.952;2022-08-01T12:13:28;30.40;55.70
14755;DHT22;7469;50.906;6.952;2022-08-01T12:16:09;30.40;55.40
14755;DHT22;7469;50.906;6.952;2022-08-01T12:18:38;30.30;55.10
14755;DHT22;7469;50.906;6.952;2022-08-01T12:21:07;30.30;55.30
14755;DHT22;7469;50.906;6.952;2022-08-01T12:23:35;30.40;55.10
14755;DHT22;7469;50.906;6.952;2022-08-01T12:26:03;30.20;54.70
14755;DHT22;7469;50.906;6.952;2022-08-01T12:28:39;30.10;54.50
14755;DHT22;7469;50.906;6.952;2022-08-01T12:31:08;30.00;55.30
14755;DHT22;7469;50.906;6.952;2022-08-01T12:33:38;29.80;56.40
14755;DHT22;7469;50.906;6.952;2022-08-01T12:36:06;29.50;57.00
14755;DHT22;7469;50.906;6.952;2022-08-01T12:38:40;29.30;57.60
14755;DHT22;7469;50.906;6.952;2022-08-01T12:41:10;29.00;58.30
14755;DHT22;7469;50.906;6.952;2022-08-01T12:43:38;28.80;58.80
14755;DHT22;7469;50.906;6.952;2022-08-01T12:46:09;28.60;59.40
14755;DHT22;7469;50.906;6.952;2022-08-01T12:48:42;28.60;60.00
14755;DHT22;7469;50.906;6.952;2022-08-01T12:51:11;28.50;59.90
14755;DHT22;7469;50.906;6.952;2022-08-01T12:53:39;28.70;59.30
14755;DHT22;7469;50.906;6.952;2022-08-01T12:56:07;28.90;58.80
14755;DHT22;7469;50.906;6.952;2022-08-01T12:58:37;29.00;57.90
14755;DHT22;7469;50.906;6.952;2022-08-01T13:01:06;29.10;57.10
14755;DHT22;7469;50.906;6.952;2022-08-01T13:03:36;29.20;56.70
14755;DHT22;7469;50.906;6.952;2022-08-01T13:06:11;29.20;57.60
14755;DHT22;7469;50.906;6.952;2022-08-01T13:08:41;29.30;57.20
14755;DHT22;7469;50.906;6.952;2022-08-01T13:11:11;29.50;56.70
14755;DHT22;7469;50.906;6.952;2022-08-01T13:13:44;29.80;56.20
14755;DHT22;7469;50.906;6.952;2022-08-01T13:16:15;29.90;56.30
14755;DHT22;7469;50.906;6.952;2022-08-01T13:19:05;30.10;55.90
14755;DHT22;7469;50.906;6.952;2022-08-01T13:21:34;30.10;55.60
14755;DHT22;7469;50.906;6.952;2022-08-01T13:24:24;30.10;55.70
14755;DHT22;7469;50.906;6.952;2022-08-01T13:26:54;29.90;55.80
14755;DHT22;7469;50.906;6.952;2022-08-01T13:29:30;29.80;55.80
14755;DHT22;7469;50.906;6.952;2022-08-01T13:32:12;29.70;56.10
14755;DHT22;7469;50.906;6.952;2022-08-01T13:35:02;29.70;56.00
14755;DHT22;7469;50.906;6.952;2022-08-01T13:37:31;29.70;56.70
14755;DHT22;7469;50.906;6.952;2022-08-01T13:39:59;29.70;55.90
14755;DHT22;7469;50.906;6.952;2022-08-01T13:42:27;29.60;56.10
14755;DHT22;7469;50.906;6.952;2022-08-01T13:44:56;29.50;55.90
14755;DHT22;7469;50.906;6.952;2022-08-01T13:47:24;29.60;55.70
14755;DHT22;7469;50.906;6.952;2022-08-01T13:49:58;29.50;55.40
14755;DHT22;7469;50.906;6.952;2022-08-01T13:52:29;29.40;55.10
14755;DHT22;7469;50.906;6.952;2022-08-01T13:54:57;29.30;54.60
14755;DHT22;7469;50.906;6.952;2022-08-01T13:57:25;29.20;54.60
14755;DHT22;7469;50.906;6.952;2022-08-01T14:00:04;29.00;54.60
14755;DHT22;7469;50.906;6.952;2022-08-01T14:02:33;28.80;55.00
14755;DHT22;7469;50.906;6.952;2022-08-01T14:05:01;28.70;55.30
14755;DHT22;7469;50.906;6.952;2022-08-01T14:07:30;28.60;55.40
14755;DHT22;7469;50.906;6.952;2022-08-01T14:09:58;28.40;55.20
14755;DHT22;7469;50.906;6.952;2022-08-01T14:12:46;28.20;55.40
14755;DHT22;7469;50.906;6.952;2022-08-01T14:15:14;28.10;55.60
14755;DHT22;7469;50.906;6.952;2022-08-01T14:18:02;28.00;55.60
14755;DHT22;7469;50.906;6.952;2022-08-01T14:20:32;28.00;55.40
14755;DHT22;7469;50.906;6.952;2022-08-01T14:23:02;28.10;54.80
14755;DHT22;7469;50.906;6.952;2022-08-01T14:25:34;28.20;54.50
14755;DHT22;7469;50.906;6.952;2022-08-01T14:28:23;28.40;53.80
14755;DHT22;7469;50.906;6.952;2022-08-01T14:30:54;28.70;52.80
14755;DHT22;7469;50.906;6.952;2022-08-01T14:33:23;28.90;52.30
14755;DHT22;7469;50.906;6.952;2022-08-01T14:35:51;29.10;51.60
14755;DHT22;7469;50.906;6.952;2022-08-01T14:38:34;29.10;51.20
14755;DHT22;7469;50.906;6.952;2022-08-01T14:41:03;29.10;50.70
14755;DHT22;7469;50.906;6.952;2022-08-01T14:43:31;28.90;50.50
14755;DHT22;7469;50.906;6.952;2022-08-01T14:46:00;28.80;50.70
14755;DHT22;7469;50.906;6.952;2022-08-01T14:48:30;28.70;51.10
14755;DHT22;7469;50.906;6.952;2022-08-01T14:50:58;28.70;51.50
14755;DHT22;7469;50.906;6.952;2022-08-01T14:53:29;28.60;51.70
14755;DHT22;7469;50.906;6.952;2022-08-01T14:56:01;28.60;51.90
14755;DHT22;7469;50.906;6.952;2022-08-01T14:58:29;28.60;51.80
14755;DHT22;7469;50.906;6.952;2022-08-01T15:00:58;28.60;51.70
14755;DHT22;7469;50.906;6.952;2022-08-01T15:03:26;28.60;52.00
14755;DHT22;7469;50.906;6.952;2022-08-01T15:05:54;28.60;52.10
14755;DHT22;7469;50.906;6.952;2022-08-01T15:08:22;28.70;52.20
14755;DHT22;7469;50.906;6.952;2022-08-01T15:10:50;28.80;52.10
14755;DHT22;7469;50.906;6.952;2022-08-01T15:13:20;28.90;52.00
14755;DHT22;7469;50.906;6.952;2022-08-01T15:15:48;28.90;52.20
14755;DHT22;7469;50.906;6.952;2022-08-01T15:18:15;28.90;52.40
14755;DHT22;7469;50.906;6.952;2022-08-01T15:20:43;29.10;52.70
14755;DHT22;7469;50.906;6.952;2022-08-01T15:23:12;29.20;52.80
14755;DHT22;7469;50.906;6.952;2022-08-01T15:25:40;29.30;52.80
14755;DHT22;7469;50.906;6.952;2022-08-01T15:28:08;29.40;52.90
14755;DHT22;7469;50.906;6.952;2022-08-01T15:30:38;29.40;52.80
14755;DHT22;7469;50.906;6.952;2022-08-01T15:33:06;29.30;52.70
14755;DHT22;7469;50.906;6.952;2022-08-01T15:35:34;29.30;52.80
14755;DHT22;7469;50.906;6.952;2022-08-01T15:38:02;29.20;53.20
14755;DHT22;7469;50.906;6.952;2022-08-01T15:40:30;29.20;53.20
14755;DHT22;7469;50.906;6.952;2022-08-01T15:43:01;29.10;53.00
14755;DHT22;7469;50.906;6.952;2022-08-01T15:45:29;29.10;53.10
14755;DHT22;7469;50.906;6.952;2022-08-01T15:48:16;29.00;53.20
14755;DHT22;7469;50.906;6.952;2022-08-01T15:50:44;28.90;53.40
14755;DHT22;7469;50.906;6.952;2022-08-01T15:53:12;28.90;53.60
14755;DHT22;7469;50.906;6.952;2022-08-01T15:55:40;28.80;53.90
14755;DHT22;7469;50.906;6.952;2022-08-01T15:58:18;28.60;54.30
14755;DHT22;7469;50.906;6.952;2022-08-01T16:00:46;28.50;54.50
14755;DHT22;7469;50.906;6.952;2022-08-01T16:03:18;28.40;54.80
14755;DHT22;7469;50.906;6.952;2022-08-01T16:05:48;28.40;55.20
14755;DHT22;7469;50.906;6.952;2022-08-01T16:08:16;28.20;55.50
14755;DHT22;7469;50.906;6.952;2022-08-01T16:10:44;28.10;56.30
14755;DHT22;7469;50.906;6.952;2022-08-01T16:13:12;28.00;56.90
14755;DHT22;7469;50.906;6.952;2022-08-01T16:15:40;27.90;57.50